Time;durP1;ratioP1;P1;durP2;ratioP2;P2;SDS_P1;SDS_P2;PMS_P1;PMS_P2;Temp;Humidity;BMP_temperature;BMP_pressure;BME280_temperature;BME280_humidity;BME280_pressure;Samples;Min_cycle;Max_cycle;Signal;HPM_P1;HPM_P2
2023/06/11 00:01:19;;;;;;;11.40;8.23;;;19.50;99.90;;;;;;5041041;28;20093;-78
2023/06/11 00:03:52;;;;;;;9.70;8.15;;;19.40;99.90;;;;;;5028030;28;20095;-78
2023/06/11 00:06:22;;;;;;;11.52;9.38;;;19.40;99.90;;;;;;5043485;28;20095;-78
2023/06/11 00:08:53;;;;;;;12.25;8.88;;;19.40;99.90;;;;;;5043607;28;20049;-78
2023/06/11 00:11:20;;;;;;;10.52;9.52;;;19.40;99.90;;;;;;5045373;28;20611;-78
2023/06/11 00:13:46;;;;;;;11.30;9.15;;;19.40;99.90;;;;;;5025715;28;20399;-78
2023/06/11 00:16:12;;;;;;;10.88;9.40;;;19.40;99.90;;;;;;5044996;28;20033;-78
2023/06/11 00:18:41;;;;;;;10.90;9.25;;;19.40;99.90;;;;;;5041398;28;20041;-77
2023/06/11 00:21:12;;;;;;;11.68;9.25;;;19.40;99.90;;;;;;5045377;28;20127;-78
2023/06/11 00:23:37;;;;;;;12.23;9.73;;;19.50;99.90;;;;;;5026834;28;20049;-77
2023/06/11 00:26:05;;;;;;;9.95;9.05;;;19.40;99.90;;;;;;5025518;28;20047;-77
2023/06/11 00:28:31;;;;;;;11.73;9.85;;;19.50;99.90;;;;;;5013511;28;20496;-78
2023/06/11 00:30:57;;;;;;;12.75;9.70;;;19.50;99.90;;;;;;5029234;28;20091;-77
2023/06/11 00:33:22;;;;;;;12.20;9.95;;;19.50;99.90;;;;;;5028724;28;20052;-78
2023/06/11 00:35:48;;;;;;;13.18;10.20;;;19.50;99.90;;;;;;5042097;28;20044;-77
2023/06/11 00:38:15;;;;;;;11.02;9.93;;;19.50;99.90;;;;;;5011767;28;20081;-78
2023/06/11 00:40:41;;;;;;;11.55;9.95;;;19.50;99.90;;;;;;5012643;28;20062;-77
2023/06/11 00:43:07;;;;;;;11.70;10.52;;;19.50;99.90;;;;;;5024759;28;20079;-77
2023/06/11 00:45:35;;;;;;;12.13;10.18;;;19.50;99.90;;;;;;5026777;28;20073;-78
2023/06/11 00:48:01;;;;;;;13.15;10.13;;;19.50;99.90;;;;;;5027890;28;20053;-78
2023/06/11 00:50:34;;;;;;;12.00;10.07;;;19.50;99.90;;;;;;5028884;28;20052;-77
2023/06/11 00:53:00;;;;;;;11.18;10.02;;;19.50;99.90;;;;;;5024889;28;20045;-78
2023/06/11 00:55:27;;;;;;;12.18;10.77;;;19.40;99.90;;;;;;5027251;28;20043;-78
2023/06/11 00:57:53;;;;;;;11.27;9.63;;;19.40;99.90;;;;;;5040360;28;20041;-78
2023/06/11 01:00:20;;;;;;;13.98;9.90;;;19.40;99.90;;;;;;5026694;28;20432;-77
2023/06/11 01:02:57;;;;;;;10.98;9.80;;;19.40;99.90;;;;;;5014264;28;20053;-77
2023/06/11 01:05:24;;;;;;;11.50;9.90;;;19.40;99.90;;;;;;5022273;28;20565;-79
2023/06/11 01:07:55;;;;;;;11.10;9.90;;;19.40;99.90;;;;;;5045805;28;20029;-77
2023/06/11 01:10:21;;;;;;;11.00;9.90;;;19.40;99.90;;;;;;5040776;28;20673;-78
2023/06/11 01:12:48;;;;;;;11.80;10.05;;;19.40;99.90;;;;;;5045062;28;20045;-78
2023/06/11 01:15:14;;;;;;;10.13;9.23;;;19.40;99.90;;;;;;5042915;28;20047;-77
2023/06/11 01:18:00;;;;;;;11.18;9.75;;;19.40;99.90;;;;;;5025012;28;20050;-78
2023/06/11 01:20:35;;;;;;;10.95;9.95;;;19.50;99.90;;;;;;5047693;28;20094;-78
2023/06/11 01:23:31;;;;;;;13.23;10.40;;;19.50;99.90;;;;;;5025230;28;20049;-78
2023/06/11 01:26:42;;;;;;;10.70;9.60;;;19.40;99.90;;;;;;5045775;28;21204;-78
2023/06/11 01:29:09;;;;;;;11.15;10.15;;;19.40;99.90;;;;;;5001779;28;20057;-78
2023/06/11 01:31:39;;;;;;;11.30;9.85;;;19.40;99.90;;;;;;5040314;28;20049;-77
2023/06/11 01:34:04;;;;;;;12.27;10.13;;;19.40;99.90;;;;;;5046525;28;20043;-77
2023/06/11 01:36:34;;;;;;;11.05;9.95;;;19.40;99.90;;;;;;5006527;28;20105;-77
2023/06/11 01:39:01;;;;;;;10.38;9.43;;;19.30;99.90;;;;;;5043087;28;20064;-77
2023/06/11 01:41:27;;;;;;;11.15;10.05;;;19.30;99.90;;;;;;5013670;28;20050;-77
2023/06/11 01:43:53;;;;;;;10.63;9.60;;;19.30;99.90;;;;;;5042494;28;20475;-78
2023/06/11 01:46:19;;;;;;;10.75;9.75;;;19.20;99.90;;;;;;5044108;28;20037;-78
2023/06/11 01:48:44;;;;;;;10.48;9.55;;;19.20;99.90;;;;;;5019957;28;20095;-75
2023/06/11 01:51:13;;;;;;;12.52;9.90;;;19.20;99.90;;;;;;5025613;28;20056;-78
2023/06/11 01:53:43;;;;;;;12.23;10.30;;;19.10;99.90;;;;;;5022335;28;20041;-78
2023/06/11 01:56:09;;;;;;;11.00;9.90;;;19.10;99.90;;;;;;5045188;28;20108;-78
2023/06/11 01:58:37;;;;;;;11.98;10.68;;;19.00;99.90;;;;;;5027117;28;20045;-77
2023/06/11 02:01:03;;;;;;;13.50;11.10;;;19.00;99.90;;;;;;5023808;28;20056;-78
2023/06/11 02:03:29;;;;;;;17.17;11.20;;;18.80;99.90;;;;;;5042776;28;20056;-78
2023/06/11 02:05:55;;;;;;;12.00;10.55;;;18.80;99.90;;;;;;5025752;28;20468;-76
2023/06/11 02:08:21;;;;;;;14.80;10.40;;;18.80;99.90;;;;;;5027378;28;20046;-78
2023/06/11 02:10:46;;;;;;;11.23;10.02;;;18.70;99.90;;;;;;5025080;28;20045;-78
2023/06/11 02:13:12;;;;;;;12.02;10.57;;;18.70;99.90;;;;;;5026541;28;20073;-78
2023/06/11 02:15:38;;;;;;;13.05;10.90;;;18.60;99.90;;;;;;5041725;28;20041;-78
2023/06/11 02:18:04;;;;;;;14.38;10.68;;;18.60;99.90;;;;;;5021454;28;20077;-78
2023/06/11 02:20:30;;;;;;;11.38;10.27;;;18.60;99.90;;;;;;5045121;28;20040;-78
2023/06/11 02:22:55;;;;;;;11.70;10.40;;;18.50;99.90;;;;;;5009382;28;20053;-78
2023/06/11 02:25:21;;;;;;;12.45;11.23;;;18.50;99.90;;;;;;5044503;28;20054;-77
2023/06/11 02:27:49;;;;;;;13.00;11.27;;;18.40;99.90;;;;;;5013815;28;20036;-77
2023/06/11 02:30:15;;;;;;;12.93;11.60;;;18.40;99.90;;;;;;5046704;28;20051;-77
2023/06/11 02:32:41;;;;;;;13.10;11.68;;;18.30;99.90;;;;;;5029241;28;20096;-77
2023/06/11 02:35:07;;;;;;;11.90;10.80;;;18.30;99.90;;;;;;5046000;28;20041;-77
2023/06/11 02:37:33;;;;;;;12.52;10.73;;;18.20;99.90;;;;;;5029888;28;20052;-78
2023/06/11 02:39:59;;;;;;;12.77;11.48;;;18.10;99.90;;;;;;5013379;28;20058;-78
2023/06/11 02:42:24;;;;;;;12.90;11.70;;;18.10;99.90;;;;;;5032481;28;20064;-78
2023/06/11 02:44:50;;;;;;;13.10;11.88;;;18.00;99.90;;;;;;5012655;28;20045;-78
2023/06/11 02:47:16;;;;;;;12.45;11.35;;;18.00;99.90;;;;;;5031126;28;20069;-78
2023/06/11 02:49:41;;;;;;;12.52;11.23;;;18.00;99.90;;;;;;5028519;28;20025;-78
2023/06/11 02:52:07;;;;;;;13.75;12.30;;;17.90;99.90;;;;;;5011502;28;20048;-78
2023/06/11 02:54:33;;;;;;;13.00;11.90;;;17.90;99.90;;;;;;5046919;28;20045;-78
2023/06/11 02:56:59;;;;;;;14.45;11.95;;;17.90;99.90;;;;;;5028714;28;20044;-78
2023/06/11 02:59:24;;;;;;;13.48;12.23;;;17.90;99.90;;;;;;5013547;28;20060;-78
2023/06/11 03:01:50;;;;;;;14.00;12.68;;;17.90;99.90;;;;;;4994874;28;20049;-78
2023/06/11 03:04:16;;;;;;;12.30;11.07;;;17.90;99.90;;;;;;5016131;28;20049;-77
2023/06/11 03:06:42;;;;;;;13.40;12.10;;;17.90;99.90;;;;;;5008121;28;20034;-77
2023/06/11 03:09:07;;;;;;;14.25;12.95;;;17.90;99.90;;;;;;5046399;28;20146;-78
2023/06/11 03:11:33;;;;;;;14.20;12.82;;;17.90;99.90;;;;;;5011307;28;20574;-78
2023/06/11 03:13:59;;;;;;;14.20;12.80;;;17.90;99.90;;;;;;5046205;28;20053;-77
2023/06/11 03:16:24;;;;;;;13.95;12.30;;;17.90;99.90;;;;;;5028808;28;20053;-77
2023/06/11 03:18:50;;;;;;;13.45;12.13;;;17.80;99.90;;;;;;5027077;28;20045;-77
2023/06/11 03:21:16;;;;;;;14.27;12.88;;;17.80;99.90;;;;;;5044107;28;20101;-77
2023/06/11 03:23:41;;;;;;;13.15;12.05;;;17.80;99.90;;;;;;5029580;28;20056;-77
2023/06/11 03:26:07;;;;;;;13.95;12.57;;;17.80;99.90;;;;;;5029094;28;20121;-78
2023/06/11 03:28:33;;;;;;;15.45;13.40;;;17.80;99.90;;;;;;5041939;28;20053;-77
2023/06/11 03:30:58;;;;;;;18.45;13.23;;;17.80;99.90;;;;;;5008694;28;20451;-77
2023/06/11 03:33:24;;;;;;;15.15;13.65;;;17.80;99.90;;;;;;5030365;28;20458;-77
2023/06/11 03:35:50;;;;;;;14.50;13.00;;;17.80;99.90;;;;;;5024126;28;20040;-78
2023/06/11 03:38:15;;;;;;;15.00;12.75;;;17.80;99.90;;;;;;5029419;28;20042;-78
2023/06/11 03:40:41;;;;;;;14.82;13.27;;;17.90;99.90;;;;;;5045878;28;20431;-77
2023/06/11 03:43:07;;;;;;;13.73;12.52;;;18.10;99.90;;;;;;5012048;28;20105;-77
2023/06/11 03:45:33;;;;;;;14.85;13.23;;;18.30;99.90;;;;;;5032361;28;20057;-77
2023/06/11 03:47:58;;;;;;;14.60;12.95;;;18.60;99.90;;;;;;5031368;28;20040;-77
2023/06/11 03:50:24;;;;;;;14.75;13.27;;;18.60;99.90;;;;;;5031102;28;20084;-77
2023/06/11 03:52:50;;;;;;;14.65;13.35;;;18.50;99.90;;;;;;5009129;28;20049;-77
2023/06/11 03:55:16;;;;;;;16.63;13.63;;;18.50;99.90;;;;;;5028393;28;20141;-77
2023/06/11 03:57:42;;;;;;;14.80;13.27;;;18.50;99.90;;;;;;5024222;28;20063;-77
2023/06/11 04:00:08;;;;;;;14.73;13.30;;;18.40;99.90;;;;;;5015434;28;20559;-77
2023/06/11 04:02:34;;;;;;;15.20;13.30;;;18.40;99.90;;;;;;5010017;28;20045;-77
2023/06/11 04:05:01;;;;;;;14.07;12.77;;;18.40;99.90;;;;;;5024875;28;20523;-77
2023/06/11 04:07:27;;;;;;;14.98;13.48;;;18.30;99.90;;;;;;5014517;28;20523;-77
2023/06/11 04:09:53;;;;;;;15.25;13.60;;;18.30;99.90;;;;;;5009125;28;20982;-78
2023/06/11 04:12:18;;;;;;;14.55;13.15;;;18.30;99.90;;;;;;5045416;28;20045;-78
2023/06/11 04:14:44;;;;;;;14.65;13.25;;;18.30;99.90;;;;;;5028382;28;20049;-78
2023/06/11 04:17:10;;;;;;;14.57;13.18;;;18.20;99.90;;;;;;5026197;28;20045;-78
2023/06/11 04:19:36;;;;;;;15.43;13.90;;;18.20;99.90;;;;;;5009585;28;20049;-77
2023/06/11 04:22:02;;;;;;;14.35;12.95;;;18.30;99.90;;;;;;5028260;28;20044;-78
2023/06/11 04:24:27;;;;;;;15.40;13.57;;;18.30;99.90;;;;;;5031218;28;20033;-78
2023/06/11 04:26:53;;;;;;;14.85;13.30;;;18.30;99.90;;;;;;5008617;28;20128;-78
2023/06/11 04:29:19;;;;;;;15.15;13.68;;;18.30;99.90;;;;;;5013077;28;20096;-78
2023/06/11 04:31:48;;;;;;;15.95;14.43;;;18.40;99.90;;;;;;5045912;28;20056;-77
2023/06/11 04:34:17;;;;;;;15.77;14.18;;;18.60;99.90;;;;;;5026104;28;20045;-77
2023/06/11 04:36:43;;;;;;;16.00;14.43;;;18.60;99.90;;;;;;5045066;28;20045;-77
2023/06/11 04:39:09;;;;;;;14.52;13.15;;;18.60;99.90;;;;;;5028885;28;20064;-78
2023/06/11 04:41:36;;;;;;;15.75;14.35;;;18.60;99.90;;;;;;5023750;28;20407;-78
2023/06/11 04:44:03;;;;;;;15.93;13.80;;;18.70;99.90;;;;;;5043756;28;20041;-77
2023/06/11 04:46:32;;;;;;;15.90;14.48;;;18.80;99.90;;;;;;5028589;28;20105;-78
2023/06/11 04:49:00;;;;;;;16.10;14.65;;;18.90;99.90;;;;;;5026355;28;20038;-78
2023/06/11 04:51:32;;;;;;;15.23;13.77;;;18.90;99.90;;;;;;5026975;28;20041;-77
2023/06/11 04:54:07;;;;;;;15.25;13.93;;;19.00;99.90;;;;;;5026265;28;20052;-78
2023/06/11 04:56:33;;;;;;;16.65;14.95;;;18.90;99.90;;;;;;5043709;28;20037;-77
2023/06/11 04:59:01;;;;;;;15.55;13.95;;;18.90;99.90;;;;;;5025812;28;20086;-78
2023/06/11 05:01:30;;;;;;;15.35;13.85;;;18.90;99.90;;;;;;5008919;28;20045;-77
2023/06/11 05:03:56;;;;;;;15.93;14.35;;;18.90;99.90;;;;;;5041784;28;20053;-76
2023/06/11 05:06:24;;;;;;;16.95;14.10;;;18.90;99.90;;;;;;5024527;28;20052;-75
2023/06/11 05:08:50;;;;;;;15.40;13.90;;;18.90;99.90;;;;;;5023919;28;20049;-76
2023/06/11 05:11:16;;;;;;;15.48;13.98;;;18.90;99.90;;;;;;5011253;28;20041;-75
2023/06/11 05:13:42;;;;;;;15.90;14.20;;;19.00;99.90;;;;;;5030089;28;20045;-75
2023/06/11 05:16:08;;;;;;;16.30;14.60;;;19.00;99.90;;;;;;5030179;28;20040;-76
2023/06/11 05:18:34;;;;;;;15.70;14.20;;;19.00;99.90;;;;;;5027111;28;20098;-82
2023/06/11 05:21:00;;;;;;;16.30;14.50;;;19.10;99.90;;;;;;5000785;28;20477;-87
2023/06/11 05:23:30;;;;;;;17.35;14.70;;;19.10;99.90;;;;;;5008746;28;20049;-73
2023/06/11 05:26:11;;;;;;;15.48;13.85;;;19.20;99.90;;;;;;5043651;28;20053;-74
2023/06/11 05:28:38;;;;;;;16.67;14.03;;;19.20;99.90;;;;;;5004203;28;20046;-73
2023/06/11 05:31:05;;;;;;;17.92;14.93;;;19.20;99.90;;;;;;5019964;28;20049;-74
2023/06/11 05:33:31;;;;;;;16.52;13.55;;;19.30;99.90;;;;;;5036207;28;20045;-74
2023/06/11 05:35:57;;;;;;;15.15;13.50;;;19.40;99.90;;;;;;5037441;28;20053;-75
2023/06/11 05:38:24;;;;;;;15.32;13.73;;;19.40;99.90;;;;;;5035691;28;20536;-74
2023/06/11 05:40:50;;;;;;;15.27;13.10;;;19.60;99.90;;;;;;5012183;28;20105;-74
2023/06/11 05:43:16;;;;;;;14.02;12.60;;;19.70;99.90;;;;;;5018829;28;20488;-74
2023/06/11 05:45:49;;;;;;;15.38;13.80;;;19.80;99.90;;;;;;5020338;28;20046;-73
2023/06/11 05:48:15;;;;;;;13.43;12.02;;;19.90;99.90;;;;;;5032948;28;20109;-73
2023/06/11 05:50:42;;;;;;;13.82;12.52;;;20.00;99.90;;;;;;5007307;28;20057;-74
2023/06/11 05:53:09;;;;;;;14.18;12.88;;;20.10;99.90;;;;;;5015388;28;20339;-74
2023/06/11 05:55:35;;;;;;;16.08;13.68;;;20.30;99.90;;;;;;5018927;28;20476;-73
2023/06/11 05:58:01;;;;;;;14.60;13.10;;;20.40;99.90;;;;;;5030274;28;20316;-77
2023/06/11 06:00:28;;;;;;;16.30;13.77;;;20.60;99.90;;;;;;5027267;28;20046;-77
2023/06/11 06:02:53;;;;;;;14.35;12.85;;;20.70;99.90;;;;;;5027135;28;20053;-73
2023/06/11 06:05:19;;;;;;;15.00;13.32;;;20.70;99.90;;;;;;5025980;28;20093;-75
2023/06/11 06:07:45;;;;;;;14.07;12.68;;;20.80;99.90;;;;;;5024883;28;20049;-72
2023/06/11 06:10:11;;;;;;;15.35;13.75;;;21.00;99.90;;;;;;5010935;28;20073;-76
2023/06/11 06:12:36;;;;;;;14.50;12.52;;;21.10;99.90;;;;;;5027602;28;20065;-74
2023/06/11 06:15:02;;;;;;;14.02;12.35;;;21.20;99.90;;;;;;5020277;28;20355;-73
2023/06/11 06:17:28;;;;;;;14.07;12.65;;;21.40;99.90;;;;;;5032971;28;20037;-74
2023/06/11 06:19:54;;;;;;;15.10;13.07;;;21.50;99.90;;;;;;5024141;28;20049;-74
2023/06/11 06:22:19;;;;;;;14.10;12.57;;;21.60;99.90;;;;;;5025548;28;20309;-74
2023/06/11 06:24:45;;;;;;;14.07;12.77;;;21.70;99.90;;;;;;5018781;28;20073;-74
2023/06/11 06:27:11;;;;;;;15.43;12.95;;;21.80;99.90;;;;;;5025746;28;20504;-74
2023/06/11 06:29:38;;;;;;;14.55;12.15;;;21.90;99.90;;;;;;5018810;28;20046;-73
2023/06/11 06:32:08;;;;;;;13.82;12.25;;;22.00;99.90;;;;;;5021974;28;20097;-73
2023/06/11 06:34:35;;;;;;;15.15;13.68;;;22.20;99.90;;;;;;5018746;28;20080;-74
2023/06/11 06:37:01;;;;;;;13.73;12.18;;;22.20;99.90;;;;;;5006000;28;20515;-73
2023/06/11 06:39:27;;;;;;;13.73;12.00;;;22.30;99.90;;;;;;5013442;28;20140;-76
2023/06/11 06:41:53;;;;;;;14.90;12.80;;;22.40;99.90;;;;;;4990407;28;20160;-74
2023/06/11 06:44:18;;;;;;;14.82;13.02;;;22.60;99.90;;;;;;5030960;28;20046;-74
2023/06/11 06:46:44;;;;;;;13.40;11.95;;;22.60;99.90;;;;;;5012965;28;20045;-74
2023/06/11 06:49:10;;;;;;;13.07;11.77;;;22.80;99.90;;;;;;5027154;28;20084;-74
2023/06/11 06:51:37;;;;;;;15.48;12.52;;;22.90;99.90;;;;;;5021594;28;20057;-77
2023/06/11 06:54:03;;;;;;;14.48;11.90;;;23.00;99.90;;;;;;5019169;28;20647;-75
2023/06/11 06:56:29;;;;;;;13.88;12.57;;;23.10;99.90;;;;;;5027230;28;20049;-75
2023/06/11 06:58:55;;;;;;;12.27;11.02;;;23.30;99.90;;;;;;5022348;28;20042;-75
2023/06/11 07:01:20;;;;;;;13.40;12.18;;;23.40;99.90;;;;;;5033520;28;20074;-75
2023/06/11 07:03:46;;;;;;;13.30;12.00;;;23.40;99.90;;;;;;5024397;28;20064;-76
2023/06/11 07:06:12;;;;;;;13.45;12.00;;;23.40;99.90;;;;;;5030708;28;20042;-77
2023/06/11 07:08:41;;;;;;;13.70;12.35;;;23.50;99.90;;;;;;5020354;28;20060;-78
2023/06/11 07:11:06;;;;;;;12.88;11.57;;;23.70;99.90;;;;;;5014413;28;20453;-77
2023/06/11 07:13:32;;;;;;;12.48;11.38;;;23.80;99.90;;;;;;5034689;28;20033;-78
2023/06/11 07:15:58;;;;;;;13.30;11.95;;;23.90;99.90;;;;;;5031147;28;20053;-78
2023/06/11 07:18:25;;;;;;;17.80;13.35;;;24.00;99.90;;;;;;5021109;28;20041;-76
2023/06/11 07:20:50;;;;;;;12.35;11.05;;;24.10;99.90;;;;;;5016926;28;20057;-77
2023/06/11 07:23:16;;;;;;;12.55;11.35;;;24.30;99.90;;;;;;5014135;28;20061;-77
2023/06/11 07:25:43;;;;;;;12.25;11.13;;;24.30;99.90;;;;;;5020867;28;20080;-77
2023/06/11 07:28:09;;;;;;;12.98;11.25;;;24.40;99.90;;;;;;5029527;28;20057;-77
2023/06/11 07:30:35;;;;;;;12.57;11.18;;;24.60;99.90;;;;;;5016803;28;20037;-76
2023/06/11 07:33:01;;;;;;;13.30;12.00;;;24.70;99.90;;;;;;5024763;28;20045;-76
2023/06/11 07:35:27;;;;;;;12.90;11.55;;;24.80;99.90;;;;;;5005487;28;20046;-76
2023/06/11 07:37:53;;;;;;;12.10;11.00;;;24.90;99.90;;;;;;5037174;28;20054;-76
2023/06/11 07:40:20;;;;;;;12.35;11.20;;;25.00;99.90;;;;;;5039081;28;20053;-76
2023/06/11 07:42:47;;;;;;;11.93;10.93;;;25.10;99.90;;;;;;5023458;28;20080;-76
2023/06/11 07:45:14;;;;;;;12.05;10.88;;;25.20;99.90;;;;;;5019136;28;20045;-76
2023/06/11 07:47:40;;;;;;;11.63;10.50;;;25.30;99.90;;;;;;5036994;28;20049;-77
2023/06/11 07:50:08;;;;;;;12.38;11.13;;;25.40;99.90;;;;;;5030900;28;20080;-76
2023/06/11 07:52:34;;;;;;;12.43;10.48;;;25.50;99.90;;;;;;5018178;28;20049;-76
2023/06/11 07:55:00;;;;;;;12.25;11.10;;;25.60;99.90;;;;;;5038150;28;20044;-77
2023/06/11 07:57:25;;;;;;;11.77;10.70;;;25.60;99.90;;;;;;5018916;28;20494;-76
2023/06/11 07:59:52;;;;;;;12.73;11.43;;;25.70;99.90;;;;;;5035073;28;20433;-77
2023/06/11 08:02:18;;;;;;;11.98;10.82;;;25.80;99.90;;;;;;5037300;28;20105;-77
2023/06/11 08:04:44;;;;;;;11.95;10.80;;;25.90;99.90;;;;;;5038851;28;20096;-77
2023/06/11 08:07:10;;;;;;;12.20;11.00;;;26.00;99.90;;;;;;5033553;28;20042;-77
2023/06/11 08:09:37;;;;;;;11.18;10.18;;;26.20;99.90;;;;;;5018811;28;20076;-77
2023/06/11 08:12:06;;;;;;;11.55;10.55;;;26.20;99.90;;;;;;5039246;28;20097;-77
2023/06/11 08:14:33;;;;;;;10.82;9.82;;;26.30;99.90;;;;;;5016445;28;20069;-77
2023/06/11 08:16:59;;;;;;;13.30;10.43;;;26.40;99.90;;;;;;5032345;28;20045;-77
2023/06/11 08:19:26;;;;;;;11.05;10.05;;;26.40;99.90;;;;;;5036240;28;20053;-77
2023/06/11 08:21:52;;;;;;;12.60;11.38;;;26.50;99.90;;;;;;5034530;28;20088;-77
2023/06/11 08:24:18;;;;;;;11.48;10.32;;;26.60;99.90;;;;;;5036928;28;20053;-77
2023/06/11 08:26:44;;;;;;;11.38;10.38;;;26.70;99.90;;;;;;5017031;28;20148;-77
2023/06/11 08:29:10;;;;;;;11.23;10.32;;;26.90;99.90;;;;;;5009376;28;20124;-76
2023/06/11 08:31:37;;;;;;;11.88;10.30;;;26.90;99.90;;;;;;5034707;28;20092;-77
2023/06/11 08:34:02;;;;;;;12.38;11.10;;;27.00;99.90;;;;;;5019209;28;20053;-77
2023/06/11 08:36:28;;;;;;;11.10;10.13;;;27.00;99.30;;;;;;5022887;28;20090;-77
2023/06/11 08:38:54;;;;;;;11.00;9.93;;;27.10;99.90;;;;;;5032019;28;20487;-77
2023/06/11 08:41:20;;;;;;;12.00;10.90;;;27.20;98.80;;;;;;5028335;28;20049;-77
2023/06/11 08:43:46;;;;;;;11.18;10.18;;;27.20;96.00;;;;;;5025471;28;20593;-77
2023/06/11 08:46:15;;;;;;;11.32;10.27;;;27.20;98.00;;;;;;5042064;28;20079;-78
2023/06/11 08:48:45;;;;;;;11.27;10.23;;;27.40;98.10;;;;;;5000494;28;20041;-77
2023/06/11 08:51:12;;;;;;;10.98;9.88;;;27.50;99.90;;;;;;5045002;28;20491;-77
2023/06/11 08:53:38;;;;;;;10.45;9.55;;;27.70;93.10;;;;;;5017391;28;20555;-77
2023/06/11 08:56:05;;;;;;;11.18;9.98;;;27.80;92.70;;;;;;5006492;28;20072;-77
2023/06/11 08:58:34;;;;;;;10.30;9.32;;;27.80;91.60;;;;;;5019942;28;20084;-77
2023/06/11 09:01:10;;;;;;;10.63;9.70;;;28.00;86.10;;;;;;5016518;28;20049;-77
2023/06/11 09:03:36;;;;;;;11.27;10.10;;;28.10;85.60;;;;;;5019364;28;20058;-76
2023/06/11 09:06:02;;;;;;;11.23;9.35;;;28.20;86.70;;;;;;5033641;28;20113;-77
2023/06/11 09:08:28;;;;;;;11.73;9.70;;;28.40;85.10;;;;;;5035905;28;20657;-77
2023/06/11 09:10:54;;;;;;;10.98;10.00;;;28.50;84.20;;;;;;5003406;28;20048;-76
2023/06/11 09:13:26;;;;;;;10.40;9.50;;;28.50;80.80;;;;;;5034933;28;20504;-77
2023/06/11 09:15:53;;;;;;;;;;;28.60;80.90;;;;;;5037234;28;20041;-78
2023/06/11 09:18:24;;;;;;;10.75;9.70;;;28.50;80.70;;;;;;5029192;28;19992;-77
2023/06/11 09:20:52;;;;;;;12.13;9.68;;;28.60;79.80;;;;;;5036805;28;20068;-78
2023/06/11 09:23:24;;;;;;;10.68;9.68;;;28.80;79.60;;;;;;5015609;28;20097;-78
2023/06/11 09:25:50;;;;;;;10.50;9.57;;;28.80;77.90;;;;;;5035206;28;20053;-77
2023/06/11 09:28:16;;;;;;;10.85;9.77;;;28.90;80.80;;;;;;5035742;28;20041;-77
2023/06/11 09:30:51;;;;;;;10.23;9.32;;;29.10;75.90;;;;;;5035172;28;20053;-77
2023/06/11 09:33:17;;;;;;;9.75;9.00;;;29.10;75.00;;;;;;5011004;28;20053;-77
2023/06/11 09:35:46;;;;;;;10.85;9.85;;;29.20;73.50;;;;;;5035865;28;20057;-77
2023/06/11 09:38:19;;;;;;;10.30;9.32;;;29.30;72.50;;;;;;5019955;28;20084;-77
2023/06/11 09:40:54;;;;;;;11.00;10.00;;;29.40;72.60;;;;;;5031296;28;20050;-78
2023/06/11 09:43:22;;;;;;;10.30;9.50;;;29.40;69.40;;;;;;5042734;28;20042;-77
2023/06/11 09:45:55;;;;;;;9.35;8.43;;;29.30;69.60;;;;;;5039807;28;20155;-75
2023/06/11 09:48:24;;;;;;;12.70;9.75;;;29.40;67.60;;;;;;5038210;28;20045;-77
2023/06/11 09:50:53;;;;;;;10.32;9.00;;;29.30;68.30;;;;;;5041171;28;20588;-79
2023/06/11 09:53:21;;;;;;;10.45;9.35;;;29.40;69.50;;;;;;5037784;28;20056;-92
2023/06/11 09:55:50;;;;;;;10.38;9.13;;;29.60;69.30;;;;;;5020456;28;20056;-77
2023/06/11 09:58:22;;;;;;;9.27;8.38;;;29.60;67.00;;;;;;5018127;28;20045;-77
2023/06/11 10:00:58;;;;;;;14.50;8.98;;;29.70;66.80;;;;;;5020601;28;20069;-77
2023/06/11 10:03:24;;;;;;;10.55;9.20;;;29.70;66.70;;;;;;5039973;28;20117;-76
2023/06/11 10:05:51;;;;;;;8.75;7.95;;;29.90;67.50;;;;;;5023280;28;20099;-76
2023/06/11 10:08:21;;;;;;;8.55;7.70;;;30.00;65.80;;;;;;5025186;28;20094;-77
2023/06/11 10:10:51;;;;;;;9.57;8.70;;;30.10;65.50;;;;;;5020743;28;20496;-76
2023/06/11 10:13:30;;;;;;;10.32;8.23;;;30.20;65.10;;;;;;5039835;28;20048;-76
2023/06/11 10:16:00;;;;;;;9.32;8.18;;;30.20;63.50;;;;;;5039719;28;20037;-76
2023/06/11 10:18:27;;;;;;;8.98;8.27;;;30.10;62.90;;;;;;5037237;28;20052;-76
2023/06/11 10:20:55;;;;;;;9.50;8.60;;;30.20;63.60;;;;;;5025904;28;20041;-76
2023/06/11 10:23:21;;;;;;;9.48;8.60;;;30.20;64.00;;;;;;5037072;28;20041;-76
2023/06/11 10:25:54;;;;;;;9.13;7.85;;;30.30;62.90;;;;;;5023292;28;20045;-76
2023/06/11 10:28:33;;;;;;;8.52;7.82;;;30.40;61.80;;;;;;5024486;28;20058;-76
2023/06/11 10:30:59;;;;;;;9.93;7.32;;;30.40;61.50;;;;;;5045672;28;20042;-76
2023/06/11 10:33:45;;;;;;;8.65;7.85;;;30.50;61.10;;;;;;5028676;28;20141;-76
2023/06/11 10:36:22;;;;;;;8.38;7.57;;;30.80;60.90;;;;;;5028917;28;20040;-76
2023/06/11 10:38:48;;;;;;;7.90;7.20;;;30.80;58.90;;;;;;5031446;28;20483;-76
2023/06/11 10:41:13;;;;;;;7.72;7.13;;;30.80;59.40;;;;;;5039251;28;20250;-76
2023/06/11 10:43:40;;;;;;;7.60;6.90;;;30.80;59.10;;;;;;5037414;28;20053;-77
2023/06/11 10:46:12;;;;;;;8.05;7.45;;;30.90;58.40;;;;;;5039234;28;20072;-76
2023/06/11 10:48:50;;;;;;;7.90;7.20;;;30.90;58.70;;;;;;5016064;28;20121;-75
2023/06/11 10:51:16;;;;;;;8.18;7.57;;;31.00;58.10;;;;;;5038554;28;20052;-76
2023/06/11 10:53:42;;;;;;;8.43;7.38;;;31.00;57.40;;;;;;5037966;28;20508;-76
2023/06/11 10:56:11;;;;;;;8.20;7.40;;;31.00;57.10;;;;;;5042434;28;20049;-77
2023/06/11 10:58:38;;;;;;;8.68;7.07;;;31.00;56.60;;;;;;5025363;28;20128;-77
2023/06/11 11:01:07;;;;;;;8.10;7.40;;;31.10;57.30;;;;;;5036004;28;20083;-78
2023/06/11 11:03:34;;;;;;;8.90;7.55;;;31.30;56.40;;;;;;5044477;28;20049;-77
2023/06/11 11:06:00;;;;;;;8.18;7.38;;;31.20;55.50;;;;;;5029943;28;20037;-77
2023/06/11 11:08:26;;;;;;;7.93;7.15;;;31.30;55.50;;;;;;5046946;28;20042;-77
2023/06/11 11:11:01;;;;;;;7.97;7.25;;;31.20;54.80;;;;;;5032568;28;20049;-79
2023/06/11 11:13:31;;;;;;;9.15;7.40;;;31.20;54.20;;;;;;5029228;28;20129;-81
2023/06/11 11:16:00;;;;;;;8.20;7.38;;;31.20;54.40;;;;;;5031333;28;20065;-81
2023/06/11 11:18:27;;;;;;;8.10;7.30;;;31.20;54.10;;;;;;5034009;28;20069;-82
2023/06/11 11:20:54;;;;;;;7.97;6.95;;;31.30;54.00;;;;;;5030426;28;20501;-80
2023/06/11 11:23:22;;;;;;;8.18;7.45;;;31.40;53.80;;;;;;5017239;28;20030;-80
2023/06/11 11:25:47;;;;;;;8.30;7.60;;;31.40;53.80;;;;;;5043991;28;20045;-80
2023/06/11 11:28:13;;;;;;;7.85;7.15;;;31.30;53.90;;;;;;5045736;28;20060;-81
2023/06/11 11:30:40;;;;;;;7.90;7.10;;;31.40;53.80;;;;;;5036094;28;20041;-81
2023/06/11 11:33:06;;;;;;;9.02;7.38;;;31.40;53.80;;;;;;5037097;28;20498;-81
2023/06/11 11:35:32;;;;;;;7.88;7.18;;;31.40;53.40;;;;;;5035889;28;20034;-81
2023/06/11 11:37:58;;;;;;;9.57;7.70;;;31.60;53.50;;;;;;5037846;28;20131;-81
2023/06/11 11:40:24;;;;;;;7.43;6.72;;;31.70;52.50;;;;;;5039943;28;20059;-81
2023/06/11 11:42:57;;;;;;;9.23;7.10;;;31.30;52.10;;;;;;5008867;28;20058;-80
2023/06/11 11:45:30;;;;;;;7.93;7.13;;;31.10;52.50;;;;;;5019204;28;20053;-81
2023/06/11 11:47:55;;;;;;;7.45;6.75;;;31.10;52.30;;;;;;5026016;28;20080;-81
2023/06/11 11:50:27;;;;;;;7.50;6.80;;;31.30;52.20;;;;;;5000568;28;20045;-80
2023/06/11 11:53:05;;;;;;;6.68;6.18;;;31.50;51.70;;;;;;5024873;28;20038;-80
2023/06/11 11:55:39;;;;;;;7.75;7.05;;;31.60;51.00;;;;;;5016617;28;20056;-80
2023/06/11 11:58:13;;;;;;;7.75;7.05;;;31.60;50.30;;;;;;5034886;28;20055;-81
2023/06/11 12:00:49;;;;;;;9.38;7.07;;;31.80;50.30;;;;;;5036289;28;20072;-81
2023/06/11 12:03:18;;;;;;;7.80;7.03;;;32.00;50.70;;;;;;5036300;28;20056;-81
2023/06/11 12:05:59;;;;;;;7.80;7.07;;;32.10;49.90;;;;;;5018365;28;20045;-80
2023/06/11 12:08:29;;;;;;;8.47;6.80;;;32.10;50.50;;;;;;5037778;28;20520;-81
2023/06/11 12:10:56;;;;;;;8.80;7.88;;;32.10;49.40;;;;;;5043573;28;20044;-82
2023/06/11 12:13:22;;;;;;;8.38;7.40;;;32.10;49.80;;;;;;5030079;28;20045;-81
2023/06/11 12:15:48;;;;;;;8.02;7.03;;;32.20;49.80;;;;;;5037035;28;20076;-80
2023/06/11 12:18:13;;;;;;;7.80;7.00;;;32.10;50.20;;;;;;5020912;28;20606;-76
2023/06/11 12:20:40;;;;;;;8.48;7.60;;;32.10;50.70;;;;;;5001826;28;20473;-75
2023/06/11 12:23:05;;;;;;;9.43;7.65;;;31.90;50.70;;;;;;5026553;28;20081;-76
2023/06/11 12:25:32;;;;;;;10.45;7.18;;;31.70;50.30;;;;;;5021128;28;20268;-77
2023/06/11 12:27:59;;;;;;;8.80;7.15;;;31.70;49.50;;;;;;5026783;28;20920;-74
2023/06/11 12:30:26;;;;;;;12.15;6.78;;;31.60;50.10;;;;;;5025204;28;20116;-75
2023/06/11 12:32:52;;;;;;;7.70;6.97;;;31.50;50.00;;;;;;5029869;28;20046;-75
2023/06/11 12:35:18;;;;;;;11.38;7.68;;;31.40;50.30;;;;;;5017885;28;20049;-76